Terminal Aerodrome Forecast
Issued by NWS Austin/San Antonio, TX

Home | Current Version | Previous Version | Text Only | Print | Product List | Glossary On
Versions: 1 2 3 4 5 6 7 8 9 10 11 12 13 14 15 16 17 18 19 20
977
FTUS44 KEWX 182347 CCA
TAFAUS
TAF COR
KAUS 182347Z 1900/2006 16008KT P6SM OVC045
     FM190400 17002KT P6SM OVC030
     FM191100 18003KT P6SM OVC015
     FM191400 18004KT 4SM BR OVC007
     FM192300 16004KT P6SM OVC010
     FM200300 VRB03KT 2SM BR BKN002=

USA.gov is the U.S. government's official web portal to all federal, state and local government web resources and services.